Time;durP1;ratioP1;P1;durP2;ratioP2;P2;SDS_P1;SDS_P2;PMS_P1;PMS_P2;Temp;Humidity;BMP_temperature;BMP_pressure;BME280_temperature;BME280_humidity;BME280_pressure;Samples;Min_cycle;Max_cycle;Signal;HPM_P1;HPM_P2
2023/08/28 00:01:49;;;;;;;1.55;0.60;;;;;;;24.30;54.80;92984.94;5055070;28;20036;-91
2023/08/28 00:04:14;;;;;;;0.73;0.70;;;;;;;24.33;54.74;92977.56;5049386;28;20045;-91
2023/08/28 00:06:40;;;;;;;0.95;0.70;;;;;;;24.31;54.86;92969.84;5038418;28;20078;-91
2023/08/28 00:09:05;;;;;;;0.75;0.60;;;;;;;24.30;54.79;92954.56;5055097;28;20089;-91
2023/08/28 00:11:31;;;;;;;1.08;0.80;;;;;;;24.32;54.81;92954.00;5038270;28;20063;-91
2023/08/28 00:13:56;;;;;;;0.50;0.32;;;;;;;24.30;54.78;92962.13;5045047;28;20037;-91
2023/08/28 00:16:22;;;;;;;1.05;0.75;;;;;;;24.30;54.92;92976.66;5055692;28;20043;-91
2023/08/28 00:18:47;;;;;;;1.25;0.70;;;;;;;24.29;55.00;92979.97;5023369;28;20037;-91
2023/08/28 00:21:12;;;;;;;2.17;1.00;;;;;;;24.28;54.89;92973.72;5050642;28;20049;-92
2023/08/28 00:23:38;;;;;;;0.80;0.70;;;;;;;24.29;54.94;92960.66;5072638;28;20048;-91
2023/08/28 00:26:03;;;;;;;1.15;0.50;;;;;;;24.31;54.76;92955.28;5061711;28;20037;-90
2023/08/28 00:28:29;;;;;;;0.90;0.50;;;;;;;24.31;55.05;92950.50;5036108;28;20045;-90
2023/08/28 00:30:55;;;;;;;1.63;0.68;;;;;;;24.30;54.91;92959.34;5054010;28;20036;-90
2023/08/28 00:33:21;;;;;;;0.75;0.65;;;;;;;24.29;54.95;92946.84;5036666;28;20040;-91
2023/08/28 00:35:46;;;;;;;0.63;0.60;;;;;;;24.28;54.70;92940.56;5032186;28;20029;-90
2023/08/28 00:38:12;;;;;;;0.70;0.60;;;;;;;24.30;54.73;92937.25;5042140;28;20033;-91
2023/08/28 00:40:40;;;;;;;1.02;0.68;;;;;;;24.28;54.88;92943.34;5055334;28;20036;-90
2023/08/28 00:43:07;;;;;;;0.98;0.60;;;;;;;24.29;54.81;92944.81;5038553;28;20037;-91
2023/08/28 00:45:32;;;;;;;0.98;0.70;;;;;;;24.29;54.83;92952.34;5038033;28;20044;-91
2023/08/28 00:47:58;;;;;;;0.98;0.77;;;;;;;24.27;54.81;92956.41;5057106;28;20059;-90
2023/08/28 00:50:23;;;;;;;0.40;0.40;;;;;;;24.27;54.82;92956.41;5038609;28;20041;-91
2023/08/28 00:52:49;;;;;;;1.30;0.80;;;;;;;24.29;54.74;92952.34;5036187;28;20033;-90
2023/08/28 00:55:15;;;;;;;0.93;0.60;;;;;;;24.27;54.73;92948.13;5010123;28;20040;-91
2023/08/28 00:57:40;;;;;;;0.60;0.60;;;;;;;24.28;54.67;92946.09;5019521;28;20087;-91
2023/08/28 01:00:08;;;;;;;1.35;0.60;;;;;;;24.27;54.62;92947.38;4998475;28;20467;-90
2023/08/28 01:02:34;;;;;;;1.20;0.73;;;;;;;24.28;54.62;92951.63;5036540;28;20099;-91
2023/08/28 01:04:59;;;;;;;1.08;0.63;;;;;;;24.29;54.55;92952.34;5005701;28;20050;-91
2023/08/28 01:07:40;;;;;;;0.80;0.70;;;;;;;24.28;54.68;92954.38;5031071;28;20482;-91
2023/08/28 01:10:15;;;;;;;0.60;0.60;;;;;;;24.27;54.70;92952.91;5016487;28;20049;-91
2023/08/28 01:12:49;;;;;;;0.93;0.50;;;;;;;24.26;54.60;92946.66;4996569;28;20401;-91
2023/08/28 01:15:22;;;;;;;1.20;0.80;;;;;;;24.24;54.65;92940.97;4998340;28;20045;-91
2023/08/28 01:17:55;;;;;;;0.77;0.60;;;;;;;24.25;54.66;92945.19;5002144;28;20629;-91
2023/08/28 01:20:21;;;;;;;0.98;0.60;;;;;;;24.25;54.76;92936.16;5010426;28;20050;-90
2023/08/28 01:23:06;;;;;;;0.57;0.50;;;;;;;24.25;54.78;92934.13;5013830;28;20065;-89
2023/08/28 01:25:31;;;;;;;1.13;0.75;;;;;;;24.27;54.59;92934.31;5029049;28;20053;-91
2023/08/28 01:27:58;;;;;;;1.00;0.70;;;;;;;24.26;54.60;92935.59;4989061;28;20041;-90
2023/08/28 01:30:23;;;;;;;1.15;0.77;;;;;;;24.25;54.71;92947.94;5033422;28;20039;-91
2023/08/28 01:32:49;;;;;;;0.70;0.63;;;;;;;24.24;54.83;92951.28;5050936;28;20472;-91
2023/08/28 01:35:20;;;;;;;0.88;0.60;;;;;;;24.24;54.67;92943.75;5043744;28;20138;-90
2023/08/28 01:37:46;;;;;;;0.68;0.57;;;;;;;24.24;54.76;92952.03;5066665;28;20444;-90
2023/08/28 01:40:13;;;;;;;1.13;0.80;;;;;;;24.24;55.02;92940.25;5064336;28;20046;-90
2023/08/28 01:42:38;;;;;;;0.90;0.70;;;;;;;24.24;54.92;92934.72;5038381;28;20051;-89
2023/08/28 01:45:04;;;;;;;0.50;0.50;;;;;;;24.25;54.72;92945.19;5040526;28;20040;-91
2023/08/28 01:47:30;;;;;;;0.90;0.75;;;;;;;24.24;54.76;92954.78;5033853;28;20124;-91
2023/08/28 01:49:55;;;;;;;1.02;0.75;;;;;;;24.23;54.80;92952.56;5048147;28;20119;-90
2023/08/28 01:52:21;;;;;;;1.35;0.73;;;;;;;24.24;54.67;92962.34;5052518;28;20049;-91
2023/08/28 01:54:46;;;;;;;1.17;0.60;;;;;;;24.23;54.84;92969.88;5052522;28;20035;-91
2023/08/28 01:57:11;;;;;;;0.90;0.60;;;;;;;24.23;54.98;92975.41;5035549;28;20045;-91
2023/08/28 01:59:37;;;;;;;0.85;0.57;;;;;;;24.24;54.64;92968.59;5038579;28;20052;-91
2023/08/28 02:02:02;;;;;;;0.88;0.60;;;;;;;24.23;54.57;92966.38;5053293;28;20041;-91
2023/08/28 02:04:28;;;;;;;1.08;0.85;;;;;;;24.23;54.68;92956.06;5052485;28;20482;-91
2023/08/28 02:06:53;;;;;;;0.90;0.75;;;;;;;24.24;54.73;92951.28;5036429;28;20037;-92
2023/08/28 02:09:19;;;;;;;1.02;0.80;;;;;;;24.23;54.65;92958.81;5051777;28;20032;-91
2023/08/28 02:11:45;;;;;;;1.27;0.70;;;;;;;24.23;54.76;92955.31;5052503;28;20036;-91
2023/08/28 02:14:10;;;;;;;1.00;0.63;;;;;;;24.22;54.77;92945.56;5043486;28;20368;-91
2023/08/28 02:16:38;;;;;;;1.08;0.68;;;;;;;24.22;54.70;92940.78;5045682;28;20045;-91
2023/08/28 02:19:04;;;;;;;1.38;0.77;;;;;;;24.23;54.54;92942.25;5023232;28;20469;-90
2023/08/28 02:21:29;;;;;;;1.08;0.77;;;;;;;24.22;54.44;92954.59;5046993;28;20388;-91
2023/08/28 02:23:56;;;;;;;0.52;0.45;;;;;;;24.22;54.90;92964.91;5019908;28;20055;-90
2023/08/28 02:26:21;;;;;;;0.68;0.60;;;;;;;24.21;54.71;92961.41;5034330;28;20041;-91
2023/08/28 02:28:47;;;;;;;1.05;0.80;;;;;;;24.21;54.38;92958.66;5026234;28;20036;-91
2023/08/28 02:31:12;;;;;;;1.25;0.85;;;;;;;24.20;54.61;92939.88;5025049;28;20408;-90
2023/08/28 02:33:38;;;;;;;0.50;0.50;;;;;;;24.23;54.47;92938.75;5041531;28;20048;-91
2023/08/28 02:36:03;;;;;;;1.17;0.70;;;;;;;24.21;54.67;92931.03;5021810;28;20048;-90
2023/08/28 02:38:29;;;;;;;0.95;0.60;;;;;;;24.22;54.30;92906.91;5034841;28;20036;-91
2023/08/28 02:41:04;;;;;;;0.70;0.57;;;;;;;24.19;54.57;92900.47;5044206;28;20044;-91
2023/08/28 02:43:31;;;;;;;0.70;0.60;;;;;;;24.20;54.37;92912.25;5022688;28;20049;-91
2023/08/28 02:45:57;;;;;;;0.88;0.68;;;;;;;24.21;54.48;92914.44;5046093;28;20064;-91
2023/08/28 02:48:24;;;;;;;0.60;0.60;;;;;;;24.20;54.53;92903.97;5010430;28;20050;-91
2023/08/28 02:50:50;;;;;;;1.23;0.82;;;;;;;24.16;54.76;92896.06;4984146;28;20591;-90
2023/08/28 02:53:15;;;;;;;1.52;0.70;;;;;;;24.16;54.49;92885.00;4975211;28;20047;-92
2023/08/28 02:55:41;;;;;;;1.48;0.65;;;;;;;24.16;54.59;92879.50;4963908;28;20085;-91
2023/08/28 02:58:07;;;;;;;1.08;0.70;;;;;;;24.18;54.28;92879.66;4974269;28;20101;-91
2023/08/28 03:00:34;;;;;;;1.80;0.93;;;;;;;24.16;54.35;92873.22;4974360;28;20042;-91
2023/08/28 03:03:00;;;;;;;0.50;0.35;;;;;;;24.16;54.27;92871.22;4950606;28;20139;-91
2023/08/28 03:05:26;;;;;;;1.42;0.70;;;;;;;24.18;54.37;92871.38;4943884;28;20061;-92
2023/08/28 03:07:51;;;;;;;0.90;0.70;;;;;;;24.15;54.59;92869.75;4949300;28;20039;-91
2023/08/28 03:10:18;;;;;;;1.13;0.70;;;;;;;24.17;54.55;92883.00;4940353;28;20081;-91
2023/08/28 03:12:43;;;;;;;0.90;0.60;;;;;;;24.16;54.36;92878.75;4955950;28;20058;-91
2023/08/28 03:15:09;;;;;;;0.77;0.50;;;;;;;24.16;54.33;92882.25;4953939;28;20038;-91
2023/08/28 03:17:34;;;;;;;0.75;0.70;;;;;;;24.16;54.44;92882.25;4951145;28;20084;-92
2023/08/28 03:20:00;;;;;;;0.50;0.45;;;;;;;24.15;54.46;92894.59;4957660;28;20072;-91
2023/08/28 03:22:25;;;;;;;1.02;0.70;;;;;;;24.17;54.44;92883.00;4968995;28;20035;-91
2023/08/28 03:24:52;;;;;;;4.38;1.00;;;;;;;24.21;54.44;92891.63;4993698;28;20045;-93
2023/08/28 03:27:19;;;;;;;1.48;0.80;;;;;;;24.18;54.46;92898.25;4987136;28;20039;-91
2023/08/28 03:29:47;;;;;;;1.02;0.80;;;;;;;24.18;54.27;92899.00;5002390;28;20037;-93
2023/08/28 03:32:31;;;;;;;1.30;0.52;;;;;;;24.17;54.39;92883.72;5032345;28;20045;-91
2023/08/28 03:34:57;;;;;;;5.75;0.90;;;;;;;24.25;54.34;92878.16;5004911;28;20053;-91
2023/08/28 03:37:22;;;;;;;20.58;18.40;;;;;;;24.22;54.06;92868.97;5002794;28;20418;-90
2023/08/28 03:39:48;;;;;;;15.70;7.45;;;;;;;24.23;53.93;92875.97;5000185;28;20115;-93
2023/08/28 03:42:14;;;;;;;2.00;1.52;;;;;;;24.26;54.14;92879.63;4989970;28;20045;-92
2023/08/28 03:44:40;;;;;;;3.75;2.63;;;;;;;24.31;53.81;92878.69;5030956;28;20127;-92
2023/08/28 03:47:05;;;;;;;9.77;3.53;;;;;;;24.31;53.52;92881.44;4997556;28;20041;-90
2023/08/28 03:50:01;;;;;;;8.88;3.40;;;;;;;24.16;52.69;92876.00;4997676;28;20097;-94
2023/08/28 03:52:30;;;;;;;4.95;3.67;;;;;;;23.98;52.63;92871.69;5026622;28;20128;-92
2023/08/28 03:54:55;;;;;;;8.27;5.45;;;;;;;23.92;53.24;92877.41;5024258;28;20170;-94
2023/08/28 03:57:21;;;;;;;16.90;5.88;;;;;;;23.46;49.99;92879.59;4995252;28;20045;-92
2023/08/28 03:59:46;;;;;;;7.25;2.30;;;;;;;23.07;50.07;92892.03;5010778;28;20109;-90
2023/08/28 04:02:13;;;;;;;19.20;5.18;;;;;;;22.72;50.49;92901.97;5013458;28;20045;-92
2023/08/28 04:04:39;;;;;;;13.60;3.00;;;;;;;22.52;50.32;92892.56;5037113;28;20057;-91
2023/08/28 04:07:04;;;;;;;37.63;7.80;;;;;;;22.34;50.71;92893.66;5044460;28;20052;-90
2023/08/28 04:09:30;;;;;;;17.17;5.68;;;;;;;21.92;51.40;92893.91;5060684;28;20110;-90
2023/08/28 04:12:02;;;;;;;35.70;8.30;;;;;;;21.81;51.71;92902.53;5053813;28;20033;-92
2023/08/28 04:14:30;;;;;;;14.25;6.28;;;;;;;21.72;51.72;92894.78;5056174;28;20128;-91
2023/08/28 04:16:56;;;;;;;9.65;5.72;;;;;;;21.57;52.02;92886.47;5011053;28;20046;-92
2023/08/28 04:19:21;;;;;;;12.52;5.03;;;;;;;21.57;51.90;92870.72;5012084;28;20526;-90
2023/08/28 04:21:47;;;;;;;15.32;4.88;;;;;;;21.50;52.03;92872.13;5012796;28;20642;-90
2023/08/28 04:24:12;;;;;;;9.25;3.85;;;;;;;21.39;52.35;92869.72;5045632;28;20041;-92
2023/08/28 04:26:37;;;;;;;14.90;4.28;;;;;;;;;;5019971;28;20088;-92
2023/08/28 04:29:03;;;;;;;13.23;3.92;;;;;;;21.22;52.79;92857.72;5009254;28;20049;-91
2023/08/28 04:31:29;;;;;;;5.18;3.03;;;;;;;21.08;53.22;92863.31;5014774;28;20432;-91
2023/08/28 04:33:55;;;;;;;4.50;2.22;;;;;;;20.90;53.21;92858.81;5025360;28;20076;-91
2023/08/28 04:36:21;;;;;;;10.82;2.72;;;;;;;20.70;53.89;92851.34;5001979;28;20049;-91
2023/08/28 04:38:46;;;;;;;14.30;3.75;;;;;;;20.49;54.26;92832.19;5021776;28;20547;-89
2023/08/28 04:41:12;;;;;;;24.60;6.05;;;;;;;20.47;54.54;92838.19;5009116;28;20037;-90
2023/08/28 04:43:38;;;;;;;15.25;3.40;;;;;;;20.25;55.04;92821.53;5013886;28;20047;-91
2023/08/28 04:46:07;;;;;;;13.85;4.95;;;;;;;20.24;55.23;92822.78;5017872;28;20049;-91
2023/08/28 04:48:34;;;;;;;14.63;5.55;;;;;;;19.84;55.85;92826.47;5042305;28;20169;-91
2023/08/28 04:50:59;;;;;;;17.83;5.88;;;;;;;19.42;57.30;92822.91;5049677;28;20130;-90
2023/08/28 04:53:25;;;;;;;25.65;8.75;;;;;;;19.61;57.21;92817.28;5035673;28;20047;-90
2023/08/28 04:55:50;;;;;;;9.27;4.80;;;;;;;19.57;56.97;92813.41;5029539;28;20047;-88
2023/08/28 04:58:16;;;;;;;11.38;3.42;;;;;;;19.47;57.35;92813.84;5051180;28;20058;-91
2023/08/28 05:00:41;;;;;;;10.00;3.65;;;;;;;19.56;57.30;92836.59;5034105;28;20037;-89
2023/08/28 05:03:07;;;;;;;22.17;8.82;;;;;;;19.61;57.27;92830.25;5039024;28;20049;-92
2023/08/28 05:05:32;;;;;;;17.52;4.57;;;;;;;19.69;57.04;92858.50;5049472;28;20067;-93
2023/08/28 05:07:58;;;;;;;20.67;6.10;;;;;;;19.67;57.18;92872.75;5041066;28;20071;-91
2023/08/28 05:10:26;;;;;;;12.25;5.15;;;;;;;19.71;56.52;92834.75;5063888;28;20045;-90
2023/08/28 05:12:52;;;;;;;19.10;6.15;;;;;;;19.83;56.48;92808.56;5036674;28;20041;-89
2023/08/28 05:15:18;;;;;;;12.55;4.13;;;;;;;19.99;56.37;92814.91;5035436;28;20066;-89
2023/08/28 05:17:45;;;;;;;15.50;5.10;;;;;;;20.15;55.67;92816.50;5046084;28;20037;-91
2023/08/28 05:20:11;;;;;;;12.77;3.80;;;;;;;20.28;55.04;92815.69;5048988;28;20037;-90
2023/08/28 05:22:37;;;;;;;17.92;4.07;;;;;;;20.32;55.20;92821.59;5038501;28;20047;-89
2023/08/28 05:25:02;;;;;;;18.30;5.00;;;;;;;20.42;54.86;92817.09;5050945;28;20049;-92
2023/08/28 05:27:28;;;;;;;120.10;44.67;;;;;;;20.55;54.59;92823.81;5033128;28;20048;-90
2023/08/28 05:29:53;;;;;;;92.00;34.78;;;;;;;20.52;54.60;92828.34;5056667;28;20045;-90
2023/08/28 05:32:20;;;;;;;63.83;32.80;;;;;;;20.57;54.43;92835.69;5056321;28;20087;-93
2023/08/28 05:34:47;;;;;;;57.10;22.67;;;;;;;20.51;54.75;92837.88;5049989;28;20045;-88
2023/08/28 05:37:12;;;;;;;53.97;12.55;;;;;;;20.53;54.49;92849.03;5030777;28;20052;-90
2023/08/28 05:39:38;;;;;;;17.85;7.70;;;;;;;20.31;54.95;92847.56;5048800;28;20029;-91
2023/08/28 05:42:04;;;;;;;42.63;10.88;;;;;;;20.33;55.01;92847.03;5035770;28;20127;-88
2023/08/28 05:44:29;;;;;;;40.08;10.43;;;;;;;20.47;54.78;92845.69;5042880;28;20033;-90
2023/08/28 05:46:55;;;;;;;36.83;10.48;;;;;;;20.50;54.50;92847.38;5048912;28;20048;-91
2023/08/28 05:49:20;;;;;;;36.78;14.38;;;;;;;20.36;54.79;92849.41;5030064;28;20033;-90
2023/08/28 05:51:46;;;;;;;43.20;11.85;;;;;;;20.36;54.96;92851.44;5054627;28;20041;-91
2023/08/28 05:54:11;;;;;;;72.25;30.60;;;;;;;20.40;54.95;92860.09;5049253;28;20048;-90
2023/08/28 05:56:37;;;;;;;67.78;22.60;;;;;;;20.34;54.95;92852.00;5043098;28;20530;-92
2023/08/28 05:59:02;;;;;;;133.82;33.00;;;;;;;20.29;55.30;92855.59;5041446;28;20045;-88
2023/08/28 06:01:28;;;;;;;110.35;31.50;;;;;;;20.43;54.52;92864.50;5036862;28;20053;-87
2023/08/28 06:03:56;;;;;;;330.08;154.55;;;;;;;20.51;54.29;92857.09;5034881;28;20037;-90
2023/08/28 06:06:23;;;;;;;259.48;124.90;;;;;;;20.71;54.67;92847.34;5051673;28;20033;-90
2023/08/28 06:08:51;;;;;;;176.50;79.80;;;;;;;20.97;53.80;92825.16;5025264;28;20041;-93
2023/08/28 06:11:18;;;;;;;156.15;86.38;;;;;;;21.19;53.39;92821.78;5035788;28;20053;-91
2023/08/28 06:13:43;;;;;;;59.45;23.58;;;;;;;21.33;52.94;92813.41;5040807;28;20040;-89
2023/08/28 06:16:10;;;;;;;48.60;20.15;;;;;;;21.39;52.52;92805.75;5036253;28;20067;-91
2023/08/28 06:18:36;;;;;;;80.65;41.10;;;;;;;21.47;52.39;92798.25;5048182;28;20499;-93
2023/08/28 06:21:01;;;;;;;74.20;47.65;;;;;;;21.62;52.08;92800.31;5042809;28;20041;-93
2023/08/28 06:23:27;;;;;;;81.18;48.45;;;;;;;21.61;51.65;92791.31;5049180;28;20561;-92
2023/08/28 06:25:53;;;;;;;69.90;37.20;;;;;;;21.72;51.57;92782.72;5037413;28;20448;-92
2023/08/28 06:28:28;;;;;;;66.47;41.30;;;;;;;21.80;51.35;92757.97;5050023;28;20052;-94
2023/08/28 06:30:57;;;;;;;58.00;32.70;;;;;;;21.80;51.31;92757.97;5045756;28;20192;-92
2023/08/28 06:33:22;;;;;;;50.40;27.95;;;;;;;21.75;51.24;92747.88;5030646;28;20149;-94
2023/08/28 06:35:48;;;;;;;55.28;26.70;;;;;;;21.89;50.73;92740.91;5021281;28;20698;-93
2023/08/28 06:38:13;;;;;;;51.63;24.88;;;;;;;21.83;50.81;92738.34;5066267;28;20045;-92
2023/08/28 06:40:39;;;;;;;49.53;22.90;;;;;;;21.89;50.52;92752.66;5042180;28;20051;-93
2023/08/28 06:43:37;;;;;;;;;;;;;;;;;;;;;
2023/08/28 07:02:08;;;;;;;74.65;29.63;;;;;;;21.85;49.82;92755.06;4946928;28;20104;-92
2023/08/28 07:08:02;;;;;;;;;;;;;;;;;;;;;
2023/08/28 07:18:13;;;;;;;61.10;23.23;;;;;;;21.79;49.92;92723.50;2018392;23;20534;-92
2023/08/28 07:21:17;;;;;;;76.32;35.38;;;;;;;21.83;49.67;92727.34;4988975;28;20057;-94
2023/08/28 07:23:55;;;;;;;77.82;28.63;;;;;;;21.89;49.32;92722.38;4969946;28;20640;-92
2023/08/28 07:28:57;;;;;;;119.50;38.70;;;;;;;21.62;49.36;92728.81;5000602;28;20046;-92
2023/08/28 07:31:26;;;;;;;84.10;32.38;;;;;;;21.57;49.35;92726.94;4994295;28;20251;-93
2023/08/28 07:33:54;;;;;;;75.75;27.90;;;;;;;21.53;49.42;92713.56;4998787;28;20038;-93
2023/08/28 07:36:24;;;;;;;76.15;36.95;;;;;;;21.47;49.38;92710.97;4960088;28;20064;-92
2023/08/28 07:38:50;;;;;;;102.18;45.88;;;;;;;21.41;49.59;92707.69;4984521;28;20050;-92
2023/08/28 07:41:18;;;;;;;193.35;61.47;;;;;;;21.39;49.75;92721.25;4986315;28;20045;-92
2023/08/28 07:43:46;;;;;;;92.13;39.45;;;;;;;21.31;50.02;92719.75;4986940;28;20132;-91
2023/08/28 07:46:12;;;;;;;70.00;29.95;;;;;;;21.22;50.43;92723.03;4976258;28;20048;-93
2023/08/28 07:48:38;;;;;;;77.82;29.30;;;;;;;21.16;50.35;92704.66;4979616;28;20400;-92
2023/08/28 07:51:04;;;;;;;62.75;30.83;;;;;;;21.28;50.42;92715.34;4975383;28;20160;-92
2023/08/28 07:53:29;;;;;;;56.45;30.48;;;;;;;21.34;50.16;92699.41;4982656;28;20081;-93
2023/08/28 07:55:59;;;;;;;54.47;27.85;;;;;;;21.46;49.97;92692.28;4977975;28;20041;-93
2023/08/28 07:58:26;;;;;;;49.72;25.33;;;;;;;21.45;50.00;92680.53;4956749;28;20042;-93
2023/08/28 08:00:53;;;;;;;51.00;24.90;;;;;;;21.52;50.06;92655.06;4978776;28;20060;-94
2023/08/28 08:03:18;;;;;;;54.38;22.90;;;;;;;21.52;49.64;92652.31;4982375;28;20038;-92
2023/08/28 08:09:28;;;;;;;52.17;25.25;;;;;;;21.42;50.08;92651.41;4916344;29;20047;-91
2023/08/28 08:11:55;;;;;;;70.90;32.65;;;;;;;21.39;50.16;92638.75;4895679;28;20116;-93
2023/08/28 08:14:22;;;;;;;63.42;29.27;;;;;;;21.39;50.35;92636.00;4908235;29;20043;-93
2023/08/28 08:16:47;;;;;;;48.30;23.13;;;;;;;21.44;50.11;92635.06;4895826;29;20059;-94
2023/08/28 08:19:13;;;;;;;58.05;26.20;;;;;;;21.54;50.05;92629.78;4912461;28;20590;-94
2023/08/28 08:21:38;;;;;;;78.35;39.88;;;;;;;21.60;49.84;92602.09;4892485;29;20056;-92
2023/08/28 08:24:04;;;;;;;136.93;70.05;;;;;;;21.58;50.20;92596.41;4902898;29;20054;-89
2023/08/28 08:26:33;;;;;;;114.18;56.60;;;;;;;21.45;50.47;92613.81;4899237;29;20051;-93
2023/08/28 08:28:59;;;;;;;133.63;59.67;;;;;;;21.51;50.31;92601.34;4906369;29;20071;-92
2023/08/28 08:31:30;;;;;;;164.82;77.15;;;;;;;21.70;50.09;92594.72;4899414;28;20076;-93
2023/08/28 08:33:56;;;;;;;148.40;73.45;;;;;;;21.73;50.09;92599.13;4900909;29;20047;-93
2023/08/28 08:36:23;;;;;;;153.40;83.82;;;;;;;21.66;49.98;92622.59;4927670;29;20051;-91
2023/08/28 08:39:14;;;;;;;150.55;75.30;;;;;;;21.67;50.15;92626.09;4940717;28;20055;-92
2023/08/28 08:41:41;;;;;;;135.90;65.68;;;;;;;21.73;49.87;92621.88;4913559;29;20044;-91
2023/08/28 08:44:07;;;;;;;188.20;137.82;;;;;;;21.73;49.89;92624.63;4983407;28;20501;-93
2023/08/28 08:46:33;;;;;;;135.65;66.32;;;;;;;21.71;50.04;92618.94;4957781;28;20042;-91
2023/08/28 08:48:59;;;;;;;169.65;63.13;;;;;;;21.82;49.62;92613.06;4968181;28;20046;-90
2023/08/28 08:51:25;;;;;;;154.30;59.30;;;;;;;21.86;49.72;92593.44;4982980;28;20055;-93
2023/08/28 08:54:09;;;;;;;135.57;53.55;;;;;;;21.86;49.56;92582.44;4965197;28;20038;-92
2023/08/28 08:56:40;;;;;;;113.60;46.53;;;;;;;21.88;49.45;92583.31;4992344;28;20077;-91
2023/08/28 08:59:12;;;;;;;118.63;57.03;;;;;;;21.82;49.91;92601.34;4976789;28;20053;-91
2023/08/28 09:01:43;;;;;;;110.18;46.08;;;;;;;21.88;49.79;92607.34;5000531;28;20200;-93
2023/08/28 09:04:09;;;;;;;88.15;37.40;;;;;;;21.82;49.87;92620.59;4943651;28;20052;-92
2023/08/28 09:07:06;;;;;;;78.68;34.00;;;;;;;21.71;50.02;92602.44;4979683;28;20084;-91
2023/08/28 09:10:31;;;;;;;83.45;36.70;;;;;;;21.89;49.79;92593.06;4897552;29;20099;-93
2023/08/28 09:13:04;;;;;;;89.85;38.55;;;;;;;21.88;49.75;92588.84;4879088;29;20052;-91
2023/08/28 09:15:31;;;;;;;78.25;39.45;;;;;;;21.87;49.85;92594.88;4801865;29;20050;-92
2023/08/28 09:18:00;;;;;;;90.57;37.63;;;;;;;21.91;50.08;92589.75;4788200;29;20574;-92
2023/08/28 09:23:49;;;;;;;143.05;54.67;;;;;;;22.00;49.74;92582.94;4828770;29;20573;-91
2023/08/28 09:26:21;;;;;;;134.13;55.75;;;;;;;22.01;49.70;92596.19;4785428;29;20590;-92
2023/08/28 09:29:06;;;;;;;117.00;46.90;;;;;;;21.94;49.96;92583.13;4786696;29;20046;-90
2023/08/28 09:31:34;;;;;;;108.35;42.40;;;;;;;21.92;49.89;92579.47;4793200;29;20074;-92
2023/08/28 09:34:01;;;;;;;112.55;39.42;;;;;;;21.89;50.18;92571.03;4780675;29;20131;-89
2023/08/28 09:36:27;;;;;;;87.35;36.90;;;;;;;21.89;50.11;92573.06;4759601;29;20155;-93
2023/08/28 09:38:52;;;;;;;80.55;34.95;;;;;;;22.06;49.75;92573.25;4791282;29;20100;-92
2023/08/28 09:41:20;;;;;;;89.72;36.00;;;;;;;21.94;50.25;92557.63;4766844;29;20055;-93
2023/08/28 09:43:50;;;;;;;91.97;35.78;;;;;;;22.02;50.13;92536.38;4773262;29;20266;-91
2023/08/28 09:46:18;;;;;;;81.03;34.20;;;;;;;21.99;50.16;92518.91;4847928;28;20249;-92
2023/08/28 09:48:44;;;;;;;80.10;31.33;;;;;;;21.92;50.19;92507.94;4980016;28;20053;-92
2023/08/28 09:51:10;;;;;;;145.88;44.92;;;;;;;22.04;50.09;92498.03;4988731;28;20085;-89
2023/08/28 09:53:37;;;;;;;157.80;51.97;;;;;;;22.09;50.05;92475.03;4994303;28;20038;-92
2023/08/28 09:56:03;;;;;;;191.88;60.67;;;;;;;21.94;50.44;92477.84;4980131;28;20076;-92
2023/08/28 09:58:34;;;;;;;200.38;79.88;;;;;;;22.03;50.27;92480.03;4970572;28;20455;-93
2023/08/28 10:01:00;;;;;;;205.23;86.15;;;;;;;22.09;50.42;92469.53;4983373;28;20042;-90
2023/08/28 10:03:25;;;;;;;205.35;83.35;;;;;;;21.97;50.57;92457.47;4981070;28;20044;-91
2023/08/28 10:05:52;;;;;;;200.27;91.55;;;;;;;22.02;50.57;92443.53;4974475;28;20121;-91
2023/08/28 10:08:18;;;;;;;185.80;88.90;;;;;;;22.00;50.77;92448.09;4972390;28;20053;-91
2023/08/28 10:10:46;;;;;;;153.73;76.68;;;;;;;21.88;51.13;92456.03;4968479;28;20056;-89
2023/08/28 10:13:14;;;;;;;154.57;74.75;;;;;;;21.97;50.86;92465.72;4974450;28;20049;-90
2023/08/28 10:15:45;;;;;;;143.63;72.15;;;;;;;21.95;50.78;92482.06;4976316;28;20049;-91
2023/08/28 10:18:20;;;;;;;134.48;66.20;;;;;;;21.96;50.68;92462.25;4973097;28;20590;-91
2023/08/28 10:20:45;;;;;;;128.82;61.28;;;;;;;22.04;50.75;92465.72;4975458;28;20045;-90
2023/08/28 10:23:12;;;;;;;109.97;56.00;;;;;;;21.90;50.94;92443.19;4977012;28;20061;-91
2023/08/28 10:25:37;;;;;;;107.75;53.40;;;;;;;21.94;51.12;92464.81;4974427;28;20440;-91
2023/08/28 10:28:03;;;;;;;95.30;48.33;;;;;;;21.95;51.13;92458.03;4963301;28;20056;-91
2023/08/28 10:30:29;;;;;;;100.25;46.78;;;;;;;21.93;51.13;92463.34;4968797;28;20058;-89
2023/08/28 10:32:55;;;;;;;240.57;176.65;;;;;;;21.93;51.23;92460.59;4998316;28;20049;-90
2023/08/28 10:35:20;;;;;;;107.28;66.60;;;;;;;21.98;51.05;92456.19;4977668;28;20413;-91
2023/08/28 10:37:46;;;;;;;87.78;50.20;;;;;;;21.99;51.45;92455.63;4978189;28;20046;-91
2023/08/28 10:40:11;;;;;;;79.15;48.17;;;;;;;22.07;51.21;92461.13;4979337;28;20502;-88
2023/08/28 10:42:37;;;;;;;94.03;61.35;;;;;;;22.07;51.09;92455.63;4976942;28;20052;-89
2023/08/28 10:45:02;;;;;;;85.70;57.60;;;;;;;22.12;51.08;92458.16;4971164;28;20460;-89
2023/08/28 10:47:31;;;;;;;73.45;45.17;;;;;;;22.12;51.10;92452.63;4965122;28;20050;-91
2023/08/28 10:49:58;;;;;;;69.95;38.65;;;;;;;22.08;51.32;92452.31;4989839;28;20050;-91
2023/08/28 10:52:28;;;;;;;62.08;40.00;;;;;;;22.08;51.23;92455.06;4984495;28;20123;-90
2023/08/28 10:54:54;;;;;;;98.27;56.23;;;;;;;22.09;51.20;92450.28;4975467;28;20200;-91
2023/08/28 10:57:26;;;;;;;84.00;49.10;;;;;;;22.15;50.90;92448.03;4973107;28;20049;-91
2023/08/28 10:59:57;;;;;;;104.88;54.30;;;;;;;22.16;51.03;92447.50;4991426;28;20098;-92
2023/08/28 11:02:22;;;;;;;100.57;52.50;;;;;;;22.24;51.01;92444.69;4967059;28;20042;-91
2023/08/28 11:04:48;;;;;;;99.85;54.88;;;;;;;22.15;51.08;92454.28;4976134;28;20038;-92
2023/08/28 11:07:27;;;;;;;103.45;52.85;;;;;;;22.18;51.17;92455.19;4973606;28;20096;-92
2023/08/28 11:10:21;;;;;;;156.88;57.35;;;;;;;22.23;50.85;92452.22;5004740;28;20485;-93
2023/08/28 11:13:23;;;;;;;107.97;46.85;;;;;;;22.22;51.10;92464.53;4926233;29;20506;-93
2023/08/28 11:15:52;;;;;;;109.88;44.00;;;;;;;22.26;51.27;92483.44;4900532;29;20051;-92
2023/08/28 11:19:04;;;;;;;104.82;44.63;;;;;;;22.25;51.20;92495.00;4919491;29;20044;-93
2023/08/28 11:21:38;;;;;;;117.13;47.20;;;;;;;22.18;51.64;92516.47;4853199;29;20100;-93
2023/08/28 11:24:15;;;;;;;126.88;45.53;;;;;;;22.28;51.26;92521.41;4863430;29;20140;-90
2023/08/28 11:26:43;;;;;;;86.05;28.25;;;;;;;22.15;51.64;92527.88;4864698;29;20516;-91
2023/08/28 11:29:27;;;;;;;67.28;27.17;;;;;;;22.05;52.27;92516.00;4868413;29;20552;-92
2023/08/28 11:31:52;;;;;;;202.05;90.65;;;;;;;22.02;51.75;92522.63;4868082;29;20638;-90
2023/08/28 11:34:18;;;;;;;126.82;57.33;;;;;;;21.99;52.11;92524.44;4884786;29;20080;-90
2023/08/28 11:36:45;;;;;;;122.70;52.20;;;;;;;22.10;51.96;92520.53;4880839;29;20086;-90
2023/08/28 11:39:22;;;;;;;106.85;48.53;;;;;;;22.06;51.94;92522.97;4904845;29;20501;-92
2023/08/28 11:41:47;;;;;;;127.03;56.10;;;;;;;22.14;51.89;92537.41;4887712;29;20062;-90
2023/08/28 11:44:13;;;;;;;156.40;63.05;;;;;;;22.13;51.85;92544.22;4885456;29;20049;-91
2023/08/28 11:46:38;;;;;;;173.63;68.47;;;;;;;22.12;52.16;92540.00;4865898;29;20061;-91
2023/08/28 11:49:07;;;;;;;133.43;64.13;;;;;;;22.16;51.95;92543.09;4878156;29;20039;-90
2023/08/28 11:51:33;;;;;;;128.43;63.15;;;;;;;22.27;51.78;92548.22;4952907;28;20070;-91
2023/08/28 11:53:58;;;;;;;217.10;118.53;;;;;;;22.26;51.63;92537.75;4947530;28;20473;-91
2023/08/28 11:56:27;;;;;;;176.25;80.25;;;;;;;22.21;51.61;92550.44;4977123;28;20049;-89
2023/08/28 11:58:55;;;;;;;180.95;78.88;;;;;;;22.14;51.89;92538.16;4964029;28;20129;-89
2023/08/28 12:01:20;;;;;;;158.25;66.55;;;;;;;22.28;52.11;92488.38;4969395;28;20090;-88
2023/08/28 12:03:46;;;;;;;131.30;61.92;;;;;;;22.27;51.70;92481.41;4962794;28;20114;-90
2023/08/28 12:06:12;;;;;;;222.70;117.00;;;;;;;22.29;51.73;92473.31;4958498;28;20053;-90